sensor_id;sensor_type;location;lat;lon;timestamp;temperature;humidity
4431;DHT22;2228;48.140;11.488;2022-07-23T00:01:30;23.70;1.00
4431;DHT22;2228;48.140;11.488;2022-07-23T00:03:57;23.70;1.00
4431;DHT22;2228;48.140;11.488;2022-07-23T00:06:24;23.70;1.00
4431;DHT22;2228;48.140;11.488;2022-07-23T00:08:52;23.80;1.00
4431;DHT22;2228;48.140;11.488;2022-07-23T00:11:19;23.80;1.00
4431;DHT22;2228;48.140;11.488;2022-07-23T00:13:47;23.90;1.00
4431;DHT22;2228;48.140;11.488;2022-07-23T00:16:16;23.90;1.00
4431;DHT22;2228;48.140;11.488;2022-07-23T00:18:42;23.90;1.00
4431;DHT22;2228;48.140;11.488;2022-07-23T00:21:09;23.90;1.00
4431;DHT22;2228;48.140;11.488;2022-07-23T00:23:36;23.90;1.00
4431;DHT22;2228;48.140;11.488;2022-07-23T00:26:03;24.10;1.00
4431;DHT22;2228;48.140;11.488;2022-07-23T00:28:33;24.20;1.00
4431;DHT22;2228;48.140;11.488;2022-07-23T00:31:00;24.20;1.00
4431;DHT22;2228;48.140;11.488;2022-07-23T00:33:28;24.10;1.00
4431;DHT22;2228;48.140;11.488;2022-07-23T00:35:55;23.90;1.00
4431;DHT22;2228;48.140;11.488;2022-07-23T00:38:21;24.00;1.00
4431;DHT22;2228;48.140;11.488;2022-07-23T00:40:48;24.10;1.00
4431;DHT22;2228;48.140;11.488;2022-07-23T00:43:15;24.10;1.00
4431;DHT22;2228;48.140;11.488;2022-07-23T00:45:42;24.10;1.00
4431;DHT22;2228;48.140;11.488;2022-07-23T00:48:09;24.10;1.00
4431;DHT22;2228;48.140;11.488;2022-07-23T00:50:37;23.90;1.00
4431;DHT22;2228;48.140;11.488;2022-07-23T00:53:04;23.80;1.00
4431;DHT22;2228;48.140;11.488;2022-07-23T00:55:32;23.80;1.00
4431;DHT22;2228;48.140;11.488;2022-07-23T00:57:59;23.80;1.00
4431;DHT22;2228;48.140;11.488;2022-07-23T01:00:27;23.80;1.00
4431;DHT22;2228;48.140;11.488;2022-07-23T01:02:54;23.90;1.00
4431;DHT22;2228;48.140;11.488;2022-07-23T01:05:21;23.90;1.00
4431;DHT22;2228;48.140;11.488;2022-07-23T01:07:50;23.90;1.00
4431;DHT22;2228;48.140;11.488;2022-07-23T01:10:18;23.90;1.00
4431;DHT22;2228;48.140;11.488;2022-07-23T01:13:01;23.90;1.00
4431;DHT22;2228;48.140;11.488;2022-07-23T01:15:29;23.80;1.00
4431;DHT22;2228;48.140;11.488;2022-07-23T01:17:55;23.80;1.00
4431;DHT22;2228;48.140;11.488;2022-07-23T01:20:22;23.80;1.00
4431;DHT22;2228;48.140;11.488;2022-07-23T01:22:52;23.70;1.00
4431;DHT22;2228;48.140;11.488;2022-07-23T01:25:19;23.60;1.00
4431;DHT22;2228;48.140;11.488;2022-07-23T01:27:46;23.00;1.00
4431;DHT22;2228;48.140;11.488;2022-07-23T01:30:13;21.50;1.00
4431;DHT22;2228;48.140;11.488;2022-07-23T01:32:40;20.90;1.00
4431;DHT22;2228;48.140;11.488;2022-07-23T01:35:08;20.40;1.00
4431;DHT22;2228;48.140;11.488;2022-07-23T01:37:35;20.00;13.50
4431;DHT22;2228;48.140;11.488;2022-07-23T01:40:05;19.50;78.00
4431;DHT22;2228;48.140;11.488;2022-07-23T01:42:32;19.00;99.90
4431;DHT22;2228;48.140;11.488;2022-07-23T01:44:58;18.70;99.90
4431;DHT22;2228;48.140;11.488;2022-07-23T01:47:26;18.40;99.90
4431;DHT22;2228;48.140;11.488;2022-07-23T01:49:53;18.10;99.90
4431;DHT22;2228;48.140;11.488;2022-07-23T01:52:20;18.10;99.90
4431;DHT22;2228;48.140;11.488;2022-07-23T01:54:46;18.10;99.90
4431;DHT22;2228;48.140;11.488;2022-07-23T01:57:14;18.10;99.90
4431;DHT22;2228;48.140;11.488;2022-07-23T01:59:41;18.10;99.90
4431;DHT22;2228;48.140;11.488;2022-07-23T02:02:08;18.10;99.90
4431;DHT22;2228;48.140;11.488;2022-07-23T02:04:35;18.10;99.90
4431;DHT22;2228;48.140;11.488;2022-07-23T02:07:02;18.00;99.90
4431;DHT22;2228;48.140;11.488;2022-07-23T02:09:29;18.00;99.90
4431;DHT22;2228;48.140;11.488;2022-07-23T02:11:56;18.00;99.90
4431;DHT22;2228;48.140;11.488;2022-07-23T02:14:24;18.10;99.90
4431;DHT22;2228;48.140;11.488;2022-07-23T02:16:51;18.10;99.90
4431;DHT22;2228;48.140;11.488;2022-07-23T02:19:18;18.10;99.90
4431;DHT22;2228;48.140;11.488;2022-07-23T02:21:44;18.00;99.90
4431;DHT22;2228;48.140;11.488;2022-07-23T02:24:11;18.00;99.90
4431;DHT22;2228;48.140;11.488;2022-07-23T02:26:38;18.00;99.90
4431;DHT22;2228;48.140;11.488;2022-07-23T02:29:05;18.00;99.90
4431;DHT22;2228;48.140;11.488;2022-07-23T02:31:34;18.00;99.90
4431;DHT22;2228;48.140;11.488;2022-07-23T02:34:01;18.00;99.90
4431;DHT22;2228;48.140;11.488;2022-07-23T02:36:28;18.10;99.90
4431;DHT22;2228;48.140;11.488;2022-07-23T02:38:55;18.10;1.00
4431;DHT22;2228;48.140;11.488;2022-07-23T02:41:22;18.10;99.90
4431;DHT22;2228;48.140;11.488;2022-07-23T02:43:49;18.20;99.90
4431;DHT22;2228;48.140;11.488;2022-07-23T02:46:16;18.20;99.90
4431;DHT22;2228;48.140;11.488;2022-07-23T02:48:44;18.20;99.90
4431;DHT22;2228;48.140;11.488;2022-07-23T02:51:11;18.30;99.90
4431;DHT22;2228;48.140;11.488;2022-07-23T02:53:39;18.20;1.00
4431;DHT22;2228;48.140;11.488;2022-07-23T02:56:06;18.30;1.00
4431;DHT22;2228;48.140;11.488;2022-07-23T02:58:33;18.40;1.00
4431;DHT22;2228;48.140;11.488;2022-07-23T03:00:59;18.20;1.00
4431;DHT22;2228;48.140;11.488;2022-07-23T03:03:27;18.00;1.00
4431;DHT22;2228;48.140;11.488;2022-07-23T03:05:55;18.10;1.00
4431;DHT22;2228;48.140;11.488;2022-07-23T03:08:22;18.10;1.00
4431;DHT22;2228;48.140;11.488;2022-07-23T03:10:49;18.00;1.00
4431;DHT22;2228;48.140;11.488;2022-07-23T03:13:16;18.00;1.00
4431;DHT22;2228;48.140;11.488;2022-07-23T03:15:43;17.90;1.00
4431;DHT22;2228;48.140;11.488;2022-07-23T03:18:10;18.00;1.00
4431;DHT22;2228;48.140;11.488;2022-07-23T03:20:37;18.00;1.00
4431;DHT22;2228;48.140;11.488;2022-07-23T03:23:05;18.10;1.00
4431;DHT22;2228;48.140;11.488;2022-07-23T03:25:32;18.10;1.00
4431;DHT22;2228;48.140;11.488;2022-07-23T03:27:58;18.10;1.00
4431;DHT22;2228;48.140;11.488;2022-07-23T03:30:25;18.10;1.00
4431;DHT22;2228;48.140;11.488;2022-07-23T03:32:52;18.30;1.00
4431;DHT22;2228;48.140;11.488;2022-07-23T03:35:19;18.40;1.00
4431;DHT22;2228;48.140;11.488;2022-07-23T03:37:45;18.40;1.00
4431;DHT22;2228;48.140;11.488;2022-07-23T03:40:14;18.40;1.00
4431;DHT22;2228;48.140;11.488;2022-07-23T03:42:40;18.50;1.00
4431;DHT22;2228;48.140;11.488;2022-07-23T03:45:08;18.60;1.00
4431;DHT22;2228;48.140;11.488;2022-07-23T03:47:35;18.60;99.90
4431;DHT22;2228;48.140;11.488;2022-07-23T03:50:03;18.40;99.90
4431;DHT22;2228;48.140;11.488;2022-07-23T03:52:30;18.50;99.90
4431;DHT22;2228;48.140;11.488;2022-07-23T03:54:57;18.60;99.90
4431;DHT22;2228;48.140;11.488;2022-07-23T03:57:25;18.60;99.90
4431;DHT22;2228;48.140;11.488;2022-07-23T03:59:51;18.60;99.90
4431;DHT22;2228;48.140;11.488;2022-07-23T04:02:18;18.50;99.90
4431;DHT22;2228;48.140;11.488;2022-07-23T04:04:45;18.50;1.00
4431;DHT22;2228;48.140;11.488;2022-07-23T04:07:13;18.50;1.00
4431;DHT22;2228;48.140;11.488;2022-07-23T04:09:40;18.60;1.00
4431;DHT22;2228;48.140;11.488;2022-07-23T04:12:07;18.60;1.00
4431;DHT22;2228;48.140;11.488;2022-07-23T04:14:36;18.60;99.90
4431;DHT22;2228;48.140;11.488;2022-07-23T04:17:03;18.60;99.90
4431;DHT22;2228;48.140;11.488;2022-07-23T04:19:29;18.60;1.00
4431;DHT22;2228;48.140;11.488;2022-07-23T04:21:56;18.60;1.00
4431;DHT22;2228;48.140;11.488;2022-07-23T04:24:23;18.70;1.00
4431;DHT22;2228;48.140;11.488;2022-07-23T04:26:50;18.80;1.00
4431;DHT22;2228;48.140;11.488;2022-07-23T04:29:17;18.80;1.00
4431;DHT22;2228;48.140;11.488;2022-07-23T04:31:45;18.90;1.00
4431;DHT22;2228;48.140;11.488;2022-07-23T04:34:12;18.90;1.00
4431;DHT22;2228;48.140;11.488;2022-07-23T04:36:39;18.90;1.00
4431;DHT22;2228;48.140;11.488;2022-07-23T04:39:05;18.90;99.90
4431;DHT22;2228;48.140;11.488;2022-07-23T04:41:32;18.90;1.00
4431;DHT22;2228;48.140;11.488;2022-07-23T04:43:59;18.90;1.00
4431;DHT22;2228;48.140;11.488;2022-07-23T04:46:26;19.00;1.00
4431;DHT22;2228;48.140;11.488;2022-07-23T04:48:55;19.10;1.00
4431;DHT22;2228;48.140;11.488;2022-07-23T04:51:22;19.00;99.90
4431;DHT22;2228;48.140;11.488;2022-07-23T04:53:48;18.90;99.90
4431;DHT22;2228;48.140;11.488;2022-07-23T04:56:16;18.90;99.90
4431;DHT22;2228;48.140;11.488;2022-07-23T04:58:42;19.00;99.90
4431;DHT22;2228;48.140;11.488;2022-07-23T05:01:09;19.10;99.90
4431;DHT22;2228;48.140;11.488;2022-07-23T05:03:36;19.20;99.90
4431;DHT22;2228;48.140;11.488;2022-07-23T05:06:04;19.20;99.90
4431;DHT22;2228;48.140;11.488;2022-07-23T05:08:31;19.20;99.90
4431;DHT22;2228;48.140;11.488;2022-07-23T05:10:58;19.30;99.90
4431;DHT22;2228;48.140;11.488;2022-07-23T05:13:25;19.30;99.90
4431;DHT22;2228;48.140;11.488;2022-07-23T05:15:51;19.40;99.90
4431;DHT22;2228;48.140;11.488;2022-07-23T05:18:18;19.30;99.90
4431;DHT22;2228;48.140;11.488;2022-07-23T05:20:45;19.40;99.90
4431;DHT22;2228;48.140;11.488;2022-07-23T05:23:13;19.30;99.90
4431;DHT22;2228;48.140;11.488;2022-07-23T05:25:40;19.30;99.90
4431;DHT22;2228;48.140;11.488;2022-07-23T05:28:07;19.30;99.90
4431;DHT22;2228;48.140;11.488;2022-07-23T05:30:34;19.40;99.90
4431;DHT22;2228;48.140;11.488;2022-07-23T05:33:01;19.40;99.90
4431;DHT22;2228;48.140;11.488;2022-07-23T05:35:27;19.40;99.90
4431;DHT22;2228;48.140;11.488;2022-07-23T05:37:54;19.40;99.90
4431;DHT22;2228;48.140;11.488;2022-07-23T05:40:22;19.50;99.90
4431;DHT22;2228;48.140;11.488;2022-07-23T05:42:49;19.60;99.90
4431;DHT22;2228;48.140;11.488;2022-07-23T05:45:16;19.50;99.90
4431;DHT22;2228;48.140;11.488;2022-07-23T05:47:44;19.50;99.90
4431;DHT22;2228;48.140;11.488;2022-07-23T05:50:11;19.20;99.90
4431;DHT22;2228;48.140;11.488;2022-07-23T05:52:38;19.20;99.90
4431;DHT22;2228;48.140;11.488;2022-07-23T05:55:06;19.30;99.90
4431;DHT22;2228;48.140;11.488;2022-07-23T05:57:34;19.20;99.90
4431;DHT22;2228;48.140;11.488;2022-07-23T06:00:03;19.40;99.90
4431;DHT22;2228;48.140;11.488;2022-07-23T06:02:30;19.40;99.90
4431;DHT22;2228;48.140;11.488;2022-07-23T06:04:57;19.50;99.90
4431;DHT22;2228;48.140;11.488;2022-07-23T06:07:24;19.60;99.90
4431;DHT22;2228;48.140;11.488;2022-07-23T06:09:50;19.70;99.90
4431;DHT22;2228;48.140;11.488;2022-07-23T06:12:17;19.80;99.90
4431;DHT22;2228;48.140;11.488;2022-07-23T06:14:45;19.80;99.90
4431;DHT22;2228;48.140;11.488;2022-07-23T06:17:14;19.90;99.90
4431;DHT22;2228;48.140;11.488;2022-07-23T06:19:40;20.00;99.90
4431;DHT22;2228;48.140;11.488;2022-07-23T06:22:07;20.00;99.90
4431;DHT22;2228;48.140;11.488;2022-07-23T06:24:34;20.00;99.90
4431;DHT22;2228;48.140;11.488;2022-07-23T06:27:00;20.00;99.90
4431;DHT22;2228;48.140;11.488;2022-07-23T06:29:27;20.00;99.90
4431;DHT22;2228;48.140;11.488;2022-07-23T06:31:55;19.90;99.90
4431;DHT22;2228;48.140;11.488;2022-07-23T06:34:22;19.90;99.90
4431;DHT22;2228;48.140;11.488;2022-07-23T06:36:49;20.00;99.90
4431;DHT22;2228;48.140;11.488;2022-07-23T06:39:16;19.90;99.90
4431;DHT22;2228;48.140;11.488;2022-07-23T06:41:42;19.70;99.90
4431;DHT22;2228;48.140;11.488;2022-07-23T06:44:09;19.40;99.90
4431;DHT22;2228;48.140;11.488;2022-07-23T06:46:36;19.30;99.90
4431;DHT22;2228;48.140;11.488;2022-07-23T06:49:04;19.20;99.90
4431;DHT22;2228;48.140;11.488;2022-07-23T06:51:31;19.30;99.90
4431;DHT22;2228;48.140;11.488;2022-07-23T06:53:57;19.20;99.90
4431;DHT22;2228;48.140;11.488;2022-07-23T06:56:24;19.30;99.90
4431;DHT22;2228;48.140;11.488;2022-07-23T06:58:51;19.30;99.90
4431;DHT22;2228;48.140;11.488;2022-07-23T07:01:18;19.60;99.90
4431;DHT22;2228;48.140;11.488;2022-07-23T07:03:45;19.70;99.90
4431;DHT22;2228;48.140;11.488;2022-07-23T07:06:13;19.80;99.90
4431;DHT22;2228;48.140;11.488;2022-07-23T07:08:41;20.10;99.90
4431;DHT22;2228;48.140;11.488;2022-07-23T07:11:08;20.20;99.90
4431;DHT22;2228;48.140;11.488;2022-07-23T07:13:35;20.30;99.90
4431;DHT22;2228;48.140;11.488;2022-07-23T07:16:02;20.40;99.90
4431;DHT22;2228;48.140;11.488;2022-07-23T07:18:29;20.40;99.90
4431;DHT22;2228;48.140;11.488;2022-07-23T07:20:56;20.40;99.90
4431;DHT22;2228;48.140;11.488;2022-07-23T07:23:24;20.50;99.90
4431;DHT22;2228;48.140;11.488;2022-07-23T07:25:51;20.60;99.90
4431;DHT22;2228;48.140;11.488;2022-07-23T07:28:18;20.70;99.90
4431;DHT22;2228;48.140;11.488;2022-07-23T07:30:45;20.60;99.90
4431;DHT22;2228;48.140;11.488;2022-07-23T07:33:11;20.60;99.90
4431;DHT22;2228;48.140;11.488;2022-07-23T07:35:38;20.60;99.90
4431;DHT22;2228;48.140;11.488;2022-07-23T07:38:05;20.50;99.90
4431;DHT22;2228;48.140;11.488;2022-07-23T07:40:33;20.60;99.90
4431;DHT22;2228;48.140;11.488;2022-07-23T07:43:00;20.80;99.90
4431;DHT22;2228;48.140;11.488;2022-07-23T07:45:29;20.90;99.90
4431;DHT22;2228;48.140;11.488;2022-07-23T07:47:56;21.00;99.90
4431;DHT22;2228;48.140;11.488;2022-07-23T07:50:24;21.10;99.90
4431;DHT22;2228;48.140;11.488;2022-07-23T07:52:51;21.20;99.90
4431;DHT22;2228;48.140;11.488;2022-07-23T07:55:18;21.30;99.90
4431;DHT22;2228;48.140;11.488;2022-07-23T07:57:46;21.30;99.90
4431;DHT22;2228;48.140;11.488;2022-07-23T08:00:13;21.40;99.90
4431;DHT22;2228;48.140;11.488;2022-07-23T08:02:41;21.50;99.90
4431;DHT22;2228;48.140;11.488;2022-07-23T08:05:08;21.40;99.90
4431;DHT22;2228;48.140;11.488;2022-07-23T08:07:36;21.50;99.90
4431;DHT22;2228;48.140;11.488;2022-07-23T08:10:05;21.60;99.90
4431;DHT22;2228;48.140;11.488;2022-07-23T08:12:38;21.50;99.90
4431;DHT22;2228;48.140;11.488;2022-07-23T08:15:08;21.30;99.90
4431;DHT22;2228;48.140;11.488;2022-07-23T08:17:36;21.20;99.90
4431;DHT22;2228;48.140;11.488;2022-07-23T08:20:03;21.30;99.90
4431;DHT22;2228;48.140;11.488;2022-07-23T08:22:45;21.40;99.90
4431;DHT22;2228;48.140;11.488;2022-07-23T08:25:12;21.50;99.90
4431;DHT22;2228;48.140;11.488;2022-07-23T08:27:39;21.80;99.90
4431;DHT22;2228;48.140;11.488;2022-07-23T08:30:09;22.10;99.90
4431;DHT22;2228;48.140;11.488;2022-07-23T08:32:52;22.40;99.90
4431;DHT22;2228;48.140;11.488;2022-07-23T08:35:22;22.80;99.90
4431;DHT22;2228;48.140;11.488;2022-07-23T08:37:50;23.20;94.40
4431;DHT22;2228;48.140;11.488;2022-07-23T08:40:17;23.60;69.10
4431;DHT22;2228;48.140;11.488;2022-07-23T08:42:47;24.20;36.90
4431;DHT22;2228;48.140;11.488;2022-07-23T08:45:18;24.50;1.00
4431;DHT22;2228;48.140;11.488;2022-07-23T08:47:49;24.80;6.60
4431;DHT22;2228;48.140;11.488;2022-07-23T08:50:16;24.90;1.00
4431;DHT22;2228;48.140;11.488;2022-07-23T08:52:42;24.90;1.00
4431;DHT22;2228;48.140;11.488;2022-07-23T08:55:09;25.00;1.00
4431;DHT22;2228;48.140;11.488;2022-07-23T08:57:36;24.90;1.00
4431;DHT22;2228;48.140;11.488;2022-07-23T09:00:04;25.10;1.00
4431;DHT22;2228;48.140;11.488;2022-07-23T09:02:38;25.20;1.00
4431;DHT22;2228;48.140;11.488;2022-07-23T09:05:05;25.10;1.00
4431;DHT22;2228;48.140;11.488;2022-07-23T09:07:32;24.90;1.00
4431;DHT22;2228;48.140;11.488;2022-07-23T09:10:07;24.80;1.00
4431;DHT22;2228;48.140;11.488;2022-07-23T09:12:35;24.80;1.00
4431;DHT22;2228;48.140;11.488;2022-07-23T09:15:08;24.80;1.00
4431;DHT22;2228;48.140;11.488;2022-07-23T09:17:39;24.70;1.00
4431;DHT22;2228;48.140;11.488;2022-07-23T09:20:10;25.00;1.00
4431;DHT22;2228;48.140;11.488;2022-07-23T09:22:38;25.20;1.00
4431;DHT22;2228;48.140;11.488;2022-07-23T09:25:10;25.60;1.00
4431;DHT22;2228;48.140;11.488;2022-07-23T09:27:49;25.80;1.00
4431;DHT22;2228;48.140;11.488;2022-07-23T09:30:18;26.40;1.00
4431;DHT22;2228;48.140;11.488;2022-07-23T09:33:03;26.90;1.00
4431;DHT22;2228;48.140;11.488;2022-07-23T09:35:44;27.00;1.00
4431;DHT22;2228;48.140;11.488;2022-07-23T09:38:11;26.80;1.00
4431;DHT22;2228;48.140;11.488;2022-07-23T09:40:38;26.80;1.00
4431;DHT22;2228;48.140;11.488;2022-07-23T09:43:05;27.00;1.00
4431;DHT22;2228;48.140;11.488;2022-07-23T09:45:32;27.50;1.00
4431;DHT22;2228;48.140;11.488;2022-07-23T09:48:12;27.90;1.00
4431;DHT22;2228;48.140;11.488;2022-07-23T09:50:40;28.00;1.00
4431;DHT22;2228;48.140;11.488;2022-07-23T09:53:07;28.30;1.00
4431;DHT22;2228;48.140;11.488;2022-07-23T09:55:35;28.60;1.00
4431;DHT22;2228;48.140;11.488;2022-07-23T09:58:04;28.80;1.00
4431;DHT22;2228;48.140;11.488;2022-07-23T10:00:32;29.00;1.00
4431;DHT22;2228;48.140;11.488;2022-07-23T10:02:59;28.30;1.00
4431;DHT22;2228;48.140;11.488;2022-07-23T10:05:30;27.90;1.00
4431;DHT22;2228;48.140;11.488;2022-07-23T10:07:58;27.60;1.00
4431;DHT22;2228;48.140;11.488;2022-07-23T10:10:27;27.90;1.00
4431;DHT22;2228;48.140;11.488;2022-07-23T10:12:55;28.00;1.00
4431;DHT22;2228;48.140;11.488;2022-07-23T10:15:48;28.80;1.00
4431;DHT22;2228;48.140;11.488;2022-07-23T10:18:16;29.30;1.00
4431;DHT22;2228;48.140;11.488;2022-07-23T10:20:47;29.50;1.00
4431;DHT22;2228;48.140;11.488;2022-07-23T10:23:21;29.60;1.00
4431;DHT22;2228;48.140;11.488;2022-07-23T10:25:59;29.10;1.00
4431;DHT22;2228;48.140;11.488;2022-07-23T10:29:00;29.10;1.00
4431;DHT22;2228;48.140;11.488;2022-07-23T10:31:40;29.00;1.00
4431;DHT22;2228;48.140;11.488;2022-07-23T10:34:14;29.20;1.00
4431;DHT22;2228;48.140;11.488;2022-07-23T10:36:48;29.50;1.00
4431;DHT22;2228;48.140;11.488;2022-07-23T10:39:22;29.20;1.00
4431;DHT22;2228;48.140;11.488;2022-07-23T10:41:51;29.10;1.00
4431;DHT22;2228;48.140;11.488;2022-07-23T10:44:19;28.90;1.00
4431;DHT22;2228;48.140;11.488;2022-07-23T10:46:58;28.80;1.00
4431;DHT22;2228;48.140;11.488;2022-07-23T10:49:34;28.60;1.00
4431;DHT22;2228;48.140;11.488;2022-07-23T10:52:23;28.60;1.00
4431;DHT22;2228;48.140;11.488;2022-07-23T10:54:52;28.90;1.00
4431;DHT22;2228;48.140;11.488;2022-07-23T10:57:20;29.00;1.00
4431;DHT22;2228;48.140;11.488;2022-07-23T11:00:12;29.10;1.00
4431;DHT22;2228;48.140;11.488;2022-07-23T11:02:40;29.20;1.00
4431;DHT22;2228;48.140;11.488;2022-07-23T11:05:08;29.10;1.00
4431;DHT22;2228;48.140;11.488;2022-07-23T11:08:13;29.10;1.00
4431;DHT22;2228;48.140;11.488;2022-07-23T11:10:46;28.90;1.00
4431;DHT22;2228;48.140;11.488;2022-07-23T11:13:41;29.00;1.00
4431;DHT22;2228;48.140;11.488;2022-07-23T11:16:17;29.10;1.00
4431;DHT22;2228;48.140;11.488;2022-07-23T11:18:59;29.10;1.00
4431;DHT22;2228;48.140;11.488;2022-07-23T11:21:46;29.00;1.00
4431;DHT22;2228;48.140;11.488;2022-07-23T11:24:19;28.80;1.00
4431;DHT22;2228;48.140;11.488;2022-07-23T11:27:04;28.40;1.00
4431;DHT22;2228;48.140;11.488;2022-07-23T11:29:48;28.20;1.00
4431;DHT22;2228;48.140;11.488;2022-07-23T11:32:23;27.70;1.00
4431;DHT22;2228;48.140;11.488;2022-07-23T11:34:51;27.50;1.00
4431;DHT22;2228;48.140;11.488;2022-07-23T11:37:35;27.00;1.00
4431;DHT22;2228;48.140;11.488;2022-07-23T11:40:07;26.60;1.00
4431;DHT22;2228;48.140;11.488;2022-07-23T11:42:36;26.60;1.00
4431;DHT22;2228;48.140;11.488;2022-07-23T11:45:05;26.50;1.00
4431;DHT22;2228;48.140;11.488;2022-07-23T11:47:32;26.50;1.00
4431;DHT22;2228;48.140;11.488;2022-07-23T11:50:00;26.60;1.00
4431;DHT22;2228;48.140;11.488;2022-07-23T11:52:28;26.80;1.00
4431;DHT22;2228;48.140;11.488;2022-07-23T11:54:57;26.70;1.00
4431;DHT22;2228;48.140;11.488;2022-07-23T11:57:26;26.50;1.00
4431;DHT22;2228;48.140;11.488;2022-07-23T11:59:55;26.50;1.00
4431;DHT22;2228;48.140;11.488;2022-07-23T12:02:22;26.60;1.00
4431;DHT22;2228;48.140;11.488;2022-07-23T12:04:51;26.50;1.00
4431;DHT22;2228;48.140;11.488;2022-07-23T12:07:29;26.50;1.00
4431;DHT22;2228;48.140;11.488;2022-07-23T12:09:58;26.40;1.00
4431;DHT22;2228;48.140;11.488;2022-07-23T12:12:26;26.20;1.00
4431;DHT22;2228;48.140;11.488;2022-07-23T12:14:54;26.20;1.00
4431;DHT22;2228;48.140;11.488;2022-07-23T12:17:27;26.20;1.00
4431;DHT22;2228;48.140;11.488;2022-07-23T12:19:56;26.30;1.00
4431;DHT22;2228;48.140;11.488;2022-07-23T12:22:23;26.30;1.00
4431;DHT22;2228;48.140;11.488;2022-07-23T12:24:58;26.40;1.00
4431;DHT22;2228;48.140;11.488;2022-07-23T12:27:27;26.40;1.00
4431;DHT22;2228;48.140;11.488;2022-07-23T12:29:54;26.20;1.00
4431;DHT22;2228;48.140;11.488;2022-07-23T12:32:22;26.20;1.00
4431;DHT22;2228;48.140;11.488;2022-07-23T12:34:51;26.10;1.00
4431;DHT22;2228;48.140;11.488;2022-07-23T12:37:29;26.30;1.00
4431;DHT22;2228;48.140;11.488;2022-07-23T12:39:56;26.30;1.00
4431;DHT22;2228;48.140;11.488;2022-07-23T12:42:23;26.50;1.00
4431;DHT22;2228;48.140;11.488;2022-07-23T12:45:06;26.20;1.00
4431;DHT22;2228;48.140;11.488;2022-07-23T12:47:55;26.30;1.00
4431;DHT22;2228;48.140;11.488;2022-07-23T12:50:42;26.20;1.00
4431;DHT22;2228;48.140;11.488;2022-07-23T12:53:14;26.30;1.00
4431;DHT22;2228;48.140;11.488;2022-07-23T12:55:42;26.50;1.00
4431;DHT22;2228;48.140;11.488;2022-07-23T12:58:12;26.70;1.00
4431;DHT22;2228;48.140;11.488;2022-07-23T13:01:01;26.80;1.00
4431;DHT22;2228;48.140;11.488;2022-07-23T13:03:31;26.70;1.00
4431;DHT22;2228;48.140;11.488;2022-07-23T13:06:00;26.60;1.00
4431;DHT22;2228;48.140;11.488;2022-07-23T13:08:30;26.70;1.00
4431;DHT22;2228;48.140;11.488;2022-07-23T13:10:58;26.70;1.00
4431;DHT22;2228;48.140;11.488;2022-07-23T13:13:26;26.70;1.00
4431;DHT22;2228;48.140;11.488;2022-07-23T13:15:54;26.70;1.00
4431;DHT22;2228;48.140;11.488;2022-07-23T13:18:22;26.60;1.00
4431;DHT22;2228;48.140;11.488;2022-07-23T13:20:49;26.80;1.00
4431;DHT22;2228;48.140;11.488;2022-07-23T13:23:17;26.70;1.00
4431;DHT22;2228;48.140;11.488;2022-07-23T13:25:44;26.40;1.00
4431;DHT22;2228;48.140;11.488;2022-07-23T13:28:12;26.20;1.00
4431;DHT22;2228;48.140;11.488;2022-07-23T13:30:39;26.20;1.00
4431;DHT22;2228;48.140;11.488;2022-07-23T13:33:06;26.20;1.00
4431;DHT22;2228;48.140;11.488;2022-07-23T13:35:36;26.20;1.00
4431;DHT22;2228;48.140;11.488;2022-07-23T13:38:03;26.40;1.00
4431;DHT22;2228;48.140;11.488;2022-07-23T13:40:30;26.90;1.00
4431;DHT22;2228;48.140;11.488;2022-07-23T13:42:57;27.50;1.00
4431;DHT22;2228;48.140;11.488;2022-07-23T13:45:24;28.30;1.00
4431;DHT22;2228;48.140;11.488;2022-07-23T13:47:51;28.30;1.00
4431;DHT22;2228;48.140;11.488;2022-07-23T13:50:17;28.20;1.00
4431;DHT22;2228;48.140;11.488;2022-07-23T13:52:45;27.80;1.00
4431;DHT22;2228;48.140;11.488;2022-07-23T13:55:12;27.20;1.00
4431;DHT22;2228;48.140;11.488;2022-07-23T13:57:39;27.00;1.00
4431;DHT22;2228;48.140;11.488;2022-07-23T14:00:07;26.90;1.00
4431;DHT22;2228;48.140;11.488;2022-07-23T14:02:37;26.70;1.00
4431;DHT22;2228;48.140;11.488;2022-07-23T14:05:05;26.50;1.00
4431;DHT22;2228;48.140;11.488;2022-07-23T14:07:33;26.30;1.00
4431;DHT22;2228;48.140;11.488;2022-07-23T14:10:02;26.30;1.00
4431;DHT22;2228;48.140;11.488;2022-07-23T14:12:30;26.30;1.00
4431;DHT22;2228;48.140;11.488;2022-07-23T14:14:57;26.20;1.00
4431;DHT22;2228;48.140;11.488;2022-07-23T14:17:23;26.20;1.00
4431;DHT22;2228;48.140;11.488;2022-07-23T14:19:50;26.20;1.00
4431;DHT22;2228;48.140;11.488;2022-07-23T14:22:17;26.40;1.00
4431;DHT22;2228;48.140;11.488;2022-07-23T14:24:44;26.40;1.00
4431;DHT22;2228;48.140;11.488;2022-07-23T14:27:12;26.40;1.00
4431;DHT22;2228;48.140;11.488;2022-07-23T14:29:39;26.70;1.00
4431;DHT22;2228;48.140;11.488;2022-07-23T14:32:06;26.90;1.00
4431;DHT22;2228;48.140;11.488;2022-07-23T14:34:33;27.00;1.00
4431;DHT22;2228;48.140;11.488;2022-07-23T14:37:01;27.00;1.00
4431;DHT22;2228;48.140;11.488;2022-07-23T14:39:28;27.10;1.00
4431;DHT22;2228;48.140;11.488;2022-07-23T14:41:54;27.30;1.00
4431;DHT22;2228;48.140;11.488;2022-07-23T14:44:23;27.20;1.00
4431;DHT22;2228;48.140;11.488;2022-07-23T14:46:50;27.40;1.00
4431;DHT22;2228;48.140;11.488;2022-07-23T14:49:17;28.00;1.00
4431;DHT22;2228;48.140;11.488;2022-07-23T14:51:43;28.70;1.00
4431;DHT22;2228;48.140;11.488;2022-07-23T14:54:10;29.30;1.00
4431;DHT22;2228;48.140;11.488;2022-07-23T14:56:37;29.70;1.00
4431;DHT22;2228;48.140;11.488;2022-07-23T14:59:04;30.00;1.00
4431;DHT22;2228;48.140;11.488;2022-07-23T15:01:32;30.00;1.00
4431;DHT22;2228;48.140;11.488;2022-07-23T15:03:59;29.50;1.00
4431;DHT22;2228;48.140;11.488;2022-07-23T15:06:26;29.00;1.00
4431;DHT22;2228;48.140;11.488;2022-07-23T15:08:53;28.60;1.00
4431;DHT22;2228;48.140;11.488;2022-07-23T15:11:20;28.20;1.00
4431;DHT22;2228;48.140;11.488;2022-07-23T15:13:47;28.10;1.00
4431;DHT22;2228;48.140;11.488;2022-07-23T15:16:14;28.00;1.00
4431;DHT22;2228;48.140;11.488;2022-07-23T15:18:42;28.40;1.00
4431;DHT22;2228;48.140;11.488;2022-07-23T15:21:10;29.20;1.00
4431;DHT22;2228;48.140;11.488;2022-07-23T15:23:37;29.30;1.00
4431;DHT22;2228;48.140;11.488;2022-07-23T15:26:05;28.90;1.00
4431;DHT22;2228;48.140;11.488;2022-07-23T15:28:32;28.50;1.00
4431;DHT22;2228;48.140;11.488;2022-07-23T15:30:59;28.40;1.00
4431;DHT22;2228;48.140;11.488;2022-07-23T15:33:27;28.70;1.00
4431;DHT22;2228;48.140;11.488;2022-07-23T15:35:55;29.90;1.00
4431;DHT22;2228;48.140;11.488;2022-07-23T15:38:24;31.30;1.00
4431;DHT22;2228;48.140;11.488;2022-07-23T15:40:51;32.30;1.00
4431;DHT22;2228;48.140;11.488;2022-07-23T15:43:18;33.00;1.00
4431;DHT22;2228;48.140;11.488;2022-07-23T15:45:44;33.80;1.00
4431;DHT22;2228;48.140;11.488;2022-07-23T15:48:12;34.10;1.00
4431;DHT22;2228;48.140;11.488;2022-07-23T15:50:39;34.30;1.00
4431;DHT22;2228;48.140;11.488;2022-07-23T15:53:07;33.80;1.00
4431;DHT22;2228;48.140;11.488;2022-07-23T15:55:34;33.50;1.00
4431;DHT22;2228;48.140;11.488;2022-07-23T15:58:01;33.80;1.00
4431;DHT22;2228;48.140;11.488;2022-07-23T16:00:28;34.20;1.00
4431;DHT22;2228;48.140;11.488;2022-07-23T16:02:54;34.20;1.00
4431;DHT22;2228;48.140;11.488;2022-07-23T16:05:21;33.80;1.00
4431;DHT22;2228;48.140;11.488;2022-07-23T16:07:48;34.00;1.00